Time;durP1;ratioP1;P1;durP2;ratioP2;P2;SDS_P1;SDS_P2;PMS_P1;PMS_P2;Temp;Humidity;BMP_temperature;BMP_pressure;BME280_temperature;BME280_humidity;BME280_pressure;Samples;Min_cycle;Max_cycle;Signal;HPM_P1;HPM_P2
2022/12/08 00:02:13;;;;;;;;;;;;;;;;;;;;;
2022/12/08 00:11:14;;;;;;;87.20;23.30;;;5.20;99.90;;;;;;5084910;28;20218;-86
2022/12/08 00:21:05;;;;;;;;;;;;;;;;;;;;;
2022/12/08 00:26:53;;;;;;;88.22;22.52;;;5.20;99.90;;;;;;5060104;28;20175;-86
2022/12/08 00:33:08;;;;;;;83.75;21.35;;;5.10;99.90;;;;;;5080772;28;20202;-85
2022/12/08 00:35:43;;;;;;;86.00;20.52;;;5.20;99.90;;;;;;5068365;28;20168;-86
2022/12/08 00:38:17;;;;;;;85.43;22.85;;;5.20;99.90;;;;;;5065857;28;20155;-85
2022/12/08 00:41:01;;;;;;;80.32;19.83;;;5.20;99.90;;;;;;5081690;28;20649;-86
2022/12/08 00:43:33;;;;;;;93.00;20.17;;;5.20;99.90;;;;;;5064907;28;20178;-85
2022/12/08 00:46:14;;;;;;;82.35;17.42;;;5.20;99.90;;;;;;5081987;28;20163;-85
2022/12/08 00:49:31;;;;;;;86.38;20.65;;;5.20;99.90;;;;;;5064657;28;20193;-85
2022/12/08 00:52:19;;;;;;;87.70;20.52;;;5.20;99.90;;;;;;5075574;28;20599;-85
2022/12/08 00:56:08;;;;;;;83.65;19.45;;;5.20;99.90;;;;;;5065182;28;20179;-85
2022/12/08 00:58:35;;;;;;;85.85;20.10;;;5.10;99.90;;;;;;5067371;28;20164;-86
2022/12/08 01:01:34;;;;;;;88.30;23.05;;;5.10;99.90;;;;;;5061946;28;20538;-86
2022/12/08 01:04:26;;;;;;;86.97;24.38;;;5.00;99.90;;;;;;5063067;28;20160;-85
2022/12/08 01:07:03;;;;;;;87.43;21.02;;;5.00;99.90;;;;;;5063613;28;20268;-86
2022/12/08 01:09:29;;;;;;;86.40;21.42;;;5.00;99.90;;;;;;5063450;28;20182;-86
2022/12/08 01:12:42;;;;;;;81.33;21.03;;;5.00;99.90;;;;;;5081819;28;20183;-85
2022/12/08 01:15:32;;;;;;;82.93;19.00;;;5.00;99.90;;;;;;5033822;28;20422;-85
2022/12/08 01:18:17;;;;;;;82.97;18.70;;;5.00;99.90;;;;;;4966957;28;20188;-86
2022/12/08 01:21:01;;;;;;;84.07;22.65;;;5.10;99.90;;;;;;5080903;28;20188;-86
2022/12/08 01:24:30;;;;;;;87.47;20.40;;;5.10;99.90;;;;;;5065025;28;20218;-86
2022/12/08 01:26:31;;;;;;;85.43;20.80;;;5.10;99.90;;;;;;5073315;28;20663;-86
2022/12/08 01:29:18;;;;;;;86.72;19.63;;;5.10;99.90;;;;;;5065453;28;20176;-86
2022/12/08 01:32:08;;;;;;;86.28;19.17;;;5.10;99.90;;;;;;5082585;28;20199;-86
2022/12/08 01:34:46;;;;;;;81.60;17.35;;;5.10;99.90;;;;;;5014373;28;20188;-85
2022/12/08 01:37:46;;;;;;;83.72;17.17;;;5.20;99.90;;;;;;5064874;28;20171;-86
2022/12/08 01:40:17;;;;;;;85.20;16.52;;;5.10;99.90;;;;;;4965386;28;20193;-86
2022/12/08 01:42:57;;;;;;;80.13;17.73;;;5.10;99.90;;;;;;4982658;28;20175;-86
2022/12/08 01:45:42;;;;;;;82.57;17.58;;;5.10;99.90;;;;;;5060996;28;20207;-86
2022/12/08 01:48:40;;;;;;;82.75;18.55;;;5.10;99.90;;;;;;5065107;28;20164;-86
2022/12/08 01:51:36;;;;;;;83.65;18.25;;;5.10;99.90;;;;;;5052943;28;20669;-86
2022/12/08 01:54:09;;;;;;;95.35;18.52;;;5.20;99.90;;;;;;5053052;28;20245;-86
2022/12/08 01:57:15;;;;;;;84.57;17.63;;;5.30;99.90;;;;;;5065041;28;20171;-86
2022/12/08 02:00:17;;;;;;;79.70;16.25;;;5.30;99.90;;;;;;5064802;28;20194;-86
2022/12/08 02:03:10;;;;;;;78.85;17.38;;;5.20;99.90;;;;;;5080715;28;20175;-86
2022/12/08 02:05:41;;;;;;;80.15;17.17;;;5.30;99.90;;;;;;5120746;22;20745;-86
2022/12/08 02:08:18;;;;;;;79.22;16.38;;;5.30;99.90;;;;;;5279844;22;20219;-86
2022/12/08 02:11:36;;;;;;;82.75;19.05;;;5.20;99.90;;;;;;5068623;28;20195;-85
2022/12/08 02:13:52;;;;;;;82.28;16.85;;;5.20;99.90;;;;;;5067426;28;20225;-87
2022/12/08 02:16:55;;;;;;;81.68;17.42;;;5.20;99.90;;;;;;5079660;28;20175;-86
2022/12/08 02:19:49;;;;;;;82.85;17.60;;;5.20;99.90;;;;;;5079279;28;20171;-86
2022/12/08 02:22:49;;;;;;;79.75;17.02;;;5.30;99.90;;;;;;5080459;28;20170;-86
2022/12/08 02:25:30;;;;;;;79.30;14.65;;;5.30;99.90;;;;;;5080364;28;20144;-87
2022/12/08 02:28:27;;;;;;;82.95;16.85;;;5.30;99.90;;;;;;5079414;28;20155;-86
2022/12/08 02:31:05;;;;;;;83.45;15.60;;;5.30;99.90;;;;;;5078782;28;20218;-86
2022/12/08 02:33:58;;;;;;;84.40;18.73;;;5.30;99.90;;;;;;5080722;28;20190;-85
2022/12/08 02:37:11;;;;;;;79.30;17.98;;;5.10;99.90;;;;;;5078438;28;20176;-86
2022/12/08 02:40:05;;;;;;;80.88;15.65;;;5.30;99.90;;;;;;5072469;28;20603;-86
2022/12/08 02:43:07;;;;;;;81.82;14.88;;;5.30;99.90;;;;;;5079884;28;20168;-86
2022/12/08 02:46:01;;;;;;;78.53;15.18;;;5.40;99.90;;;;;;5081422;28;20144;-86
2022/12/08 02:48:31;;;;;;;82.50;19.05;;;5.30;99.90;;;;;;5082816;28;20144;-86
2022/12/08 02:51:36;;;;;;;83.45;18.17;;;5.20;99.90;;;;;;5082336;28;20684;-86
2022/12/08 02:54:05;;;;;;;78.45;16.00;;;5.30;99.90;;;;;;5048623;28;20302;-86
2022/12/08 02:57:08;;;;;;;81.35;14.70;;;5.20;99.90;;;;;;5082770;28;20189;-87
2022/12/08 03:00:12;;;;;;;79.32;16.63;;;5.30;99.90;;;;;;5080792;28;20184;-86
2022/12/08 03:03:03;;;;;;;78.85;19.02;;;5.30;99.90;;;;;;5083084;28;20174;-86
2022/12/08 03:06:13;;;;;;;78.75;18.52;;;5.30;99.90;;;;;;5082347;28;20167;-86
2022/12/08 03:09:08;;;;;;;79.07;16.88;;;5.30;99.90;;;;;;5054412;28;20264;-86
2022/12/08 03:11:50;;;;;;;78.88;17.40;;;5.30;99.90;;;;;;5081150;28;20202;-87
2022/12/08 03:14:37;;;;;;;83.32;19.50;;;5.30;99.90;;;;;;5082377;28;20656;-87
2022/12/08 03:17:09;;;;;;;77.40;17.50;;;5.30;99.90;;;;;;5080926;28;20156;-86
2022/12/08 03:19:46;;;;;;;75.80;17.58;;;5.30;99.90;;;;;;5082958;28;20151;-86
2022/12/08 03:22:20;;;;;;;77.95;15.70;;;5.30;99.90;;;;;;5083357;28;20217;-86
2022/12/08 03:24:52;;;;;;;78.53;16.30;;;5.30;99.90;;;;;;5089717;28;20163;-87
2022/12/08 03:27:21;;;;;;;79.47;19.75;;;5.30;99.90;;;;;;5089980;28;20167;-87
2022/12/08 03:29:53;;;;;;;76.65;16.05;;;5.30;99.90;;;;;;5089051;28;20167;-87
2022/12/08 03:33:28;;;;;;;;;;;;;;;;;;;;;
2022/12/08 03:36:04;;;;;;;83.00;18.58;;;5.30;99.90;;;;;;5020911;28;20257;-86
2022/12/08 03:38:41;;;;;;;73.35;14.80;;;5.30;99.90;;;;;;5004932;28;20173;-86
2022/12/08 03:41:22;;;;;;;79.28;16.95;;;5.30;99.90;;;;;;5059027;28;20627;-86
2022/12/08 03:47:28;;;;;;;78.00;14.00;;;5.30;99.90;;;;;;5081857;28;20221;-86
2022/12/08 03:49:57;;;;;;;74.38;14.65;;;5.30;99.90;;;;;;5082011;28;20171;-86
2022/12/08 03:52:22;;;;;;;74.55;16.02;;;5.30;99.90;;;;;;5081665;28;20211;-86
2022/12/08 03:55:03;;;;;;;;;;;;;;;;;;;;;
2022/12/08 03:57:31;;;;;;;77.53;15.00;;;5.30;99.90;;;;;;5082850;28;20220;-86
2022/12/08 04:00:08;;;;;;;76.95;15.23;;;5.30;99.90;;;;;;5080585;28;20707;-86
2022/12/08 04:05:25;;;;;;;76.45;13.68;;;5.30;99.90;;;;;;5081314;28;20246;-86
2022/12/08 04:08:11;;;;;;;75.07;13.63;;;5.30;99.90;;;;;;5080471;28;20179;-86
2022/12/08 04:10:48;;;;;;;75.95;15.13;;;5.30;99.90;;;;;;5080334;28;20211;-86
2022/12/08 04:13:35;;;;;;;;;;;;;;;;;;;;;
2022/12/08 04:16:45;;;;;;;81.03;16.30;;;5.30;99.90;;;;;;5082888;28;20587;-86
2022/12/08 04:19:17;;;;;;;76.30;18.33;;;5.20;99.90;;;;;;5065979;28;20206;-87
2022/12/08 04:21:48;;;;;;;77.45;17.52;;;5.20;99.90;;;;;;5083471;28;20184;-87
2022/12/08 04:24:24;;;;;;;81.95;17.30;;;5.20;99.90;;;;;;5083917;28;20236;-86
2022/12/08 04:27:04;;;;;;;76.75;20.20;;;5.20;99.90;;;;;;5080701;28;20186;-86
2022/12/08 04:29:37;;;;;;;78.05;23.20;;;5.20;99.90;;;;;;5081788;28;20163;-86
2022/12/08 04:32:43;;;;;;;78.22;22.67;;;5.20;99.90;;;;;;5081171;28;20172;-87
2022/12/08 04:35:16;;;;;;;77.82;19.70;;;5.10;99.90;;;;;;5082289;28;20182;-87
2022/12/08 04:38:14;;;;;;;79.85;22.42;;;5.10;99.90;;;;;;5082981;28;20227;-86
2022/12/08 04:40:54;;;;;;;79.40;18.77;;;5.10;99.90;;;;;;5079403;28;20199;-86
2022/12/08 04:43:50;;;;;;;81.03;18.98;;;5.10;99.90;;;;;;5083397;28;20164;-86
2022/12/08 04:46:31;;;;;;;;;;;;;;;;;;;;;
2022/12/08 04:49:21;;;;;;;83.13;22.08;;;5.10;99.90;;;;;;5083484;28;20235;-86
2022/12/08 04:52:12;;;;;;;80.53;20.55;;;5.10;99.90;;;;;;5081859;28;20720;-87
2022/12/08 04:54:57;;;;;;;79.70;21.10;;;5.10;99.90;;;;;;5082522;28;20203;-86
2022/12/08 04:57:29;;;;;;;79.60;20.35;;;5.10;99.90;;;;;;5081509;28;20206;-86
2022/12/08 05:00:21;;;;;;;78.07;20.77;;;5.10;99.90;;;;;;5083290;28;20150;-86
2022/12/08 05:03:01;;;;;;;82.75;19.52;;;5.10;99.90;;;;;;5084040;28;20185;-87
2022/12/08 05:05:27;;;;;;;81.22;19.48;;;5.20;99.90;;;;;;5266423;22;20227;-85
2022/12/08 05:07:52;;;;;;;81.00;19.40;;;5.20;99.90;;;;;;5244815;22;20225;-85
2022/12/08 05:10:18;;;;;;;80.70;21.80;;;5.10;99.90;;;;;;5070493;28;20538;-85
2022/12/08 05:12:44;;;;;;;82.67;20.97;;;5.20;99.90;;;;;;5085680;28;20278;-85
2022/12/08 05:15:09;;;;;;;83.50;20.70;;;5.20;99.90;;;;;;5084779;28;20237;-85
2022/12/08 05:17:35;;;;;;;81.60;20.37;;;5.20;99.90;;;;;;5084159;28;20167;-84
2022/12/08 05:20:01;;;;;;;81.60;22.70;;;5.20;99.90;;;;;;5084231;28;20202;-84
2022/12/08 05:22:26;;;;;;;83.37;22.77;;;5.20;99.90;;;;;;5084842;28;20176;-85
2022/12/08 05:24:52;;;;;;;84.50;24.07;;;5.10;99.90;;;;;;5084970;28;20220;-85
2022/12/08 05:27:18;;;;;;;80.37;21.50;;;5.10;99.90;;;;;;5084595;28;20172;-85
2022/12/08 05:29:43;;;;;;;85.80;24.53;;;5.20;99.90;;;;;;5087182;28;20167;-85
2022/12/08 05:32:09;;;;;;;86.70;23.67;;;5.10;99.90;;;;;;5088292;28;20250;-85
2022/12/08 05:34:35;;;;;;;87.63;23.70;;;5.10;99.90;;;;;;5085258;28;20196;-84
2022/12/08 05:37:00;;;;;;;85.50;21.10;;;5.10;99.90;;;;;;5085727;28;20164;-84
2022/12/08 05:39:29;;;;;;;89.53;24.00;;;5.20;99.90;;;;;;5085528;28;20247;-85
2022/12/08 05:41:54;;;;;;;87.38;22.17;;;5.20;99.90;;;;;;5084955;28;20671;-84
2022/12/08 05:44:20;;;;;;;85.17;22.50;;;5.20;99.90;;;;;;5084291;28;20172;-85
2022/12/08 05:46:46;;;;;;;88.10;21.30;;;5.10;99.90;;;;;;5084305;28;20171;-84
2022/12/08 05:49:11;;;;;;;86.47;20.17;;;5.10;99.90;;;;;;5085583;28;20231;-84
2022/12/08 05:51:37;;;;;;;90.00;21.93;;;5.10;99.90;;;;;;5086612;28;20184;-85
2022/12/08 05:54:03;;;;;;;90.80;21.60;;;5.10;99.90;;;;;;5086555;28;20195;-85
2022/12/08 05:56:28;;;;;;;84.90;24.83;;;5.20;99.90;;;;;;5083230;28;20179;-83
2022/12/08 05:58:54;;;;;;;83.80;18.40;;;5.10;99.90;;;;;;5081364;28;20176;-84
2022/12/08 06:01:26;;;;;;;89.80;23.17;;;5.10;99.90;;;;;;5083684;28;20272;-83
2022/12/08 06:03:53;;;;;;;85.07;19.55;;;5.00;99.90;;;;;;5080926;28;20174;-84
2022/12/08 06:06:18;;;;;;;86.22;19.98;;;5.00;99.90;;;;;;5083444;28;20221;-84
2022/12/08 06:08:44;;;;;;;86.97;19.17;;;5.00;99.90;;;;;;5081775;28;20184;-83
2022/12/08 06:11:21;;;;;;;88.80;19.60;;;5.00;99.90;;;;;;5083708;28;20493;-84
2022/12/08 06:13:48;;;;;;;85.00;21.33;;;5.00;99.90;;;;;;5081499;28;20259;-83
2022/12/08 06:16:14;;;;;;;86.53;20.80;;;5.00;99.90;;;;;;5083391;28;20163;-83
2022/12/08 06:18:39;;;;;;;85.17;20.53;;;4.90;99.90;;;;;;5081417;28;20171;-86
2022/12/08 06:21:07;;;;;;;82.83;20.97;;;5.00;99.90;;;;;;5079684;28;20430;-86
2022/12/08 06:23:33;;;;;;;88.45;20.52;;;5.00;99.90;;;;;;5082007;28;20175;-85
2022/12/08 06:26:07;;;;;;;84.23;20.77;;;4.90;99.90;;;;;;5081388;28;20168;-84
2022/12/08 06:28:34;;;;;;;84.70;21.33;;;5.00;99.90;;;;;;5081951;28;20242;-85
2022/12/08 06:31:05;;;;;;;89.80;21.55;;;4.90;99.90;;;;;;5080768;28;20187;-86
2022/12/08 06:33:30;;;;;;;84.63;21.90;;;4.90;99.90;;;;;;5083340;28;20526;-86
2022/12/08 06:35:57;;;;;;;89.77;25.53;;;4.90;99.90;;;;;;5084337;28;20168;-85
2022/12/08 06:38:44;;;;;;;;;;;;;;;;;;;;;
2022/12/08 06:41:11;;;;;;;82.32;20.95;;;5.00;99.90;;;;;;5085299;28;20251;-86
2022/12/08 06:43:37;;;;;;;85.72;24.20;;;4.90;99.90;;;;;;5084965;28;20168;-86
2022/12/08 06:46:06;;;;;;;81.63;26.13;;;5.00;99.90;;;;;;5084549;28;20148;-85
2022/12/08 06:48:31;;;;;;;88.95;27.40;;;5.00;99.90;;;;;;5084926;28;20156;-86
2022/12/08 06:51:04;;;;;;;81.90;22.70;;;5.00;99.90;;;;;;5085701;28;20194;-86
2022/12/08 06:53:29;;;;;;;84.40;23.95;;;5.00;99.90;;;;;;5083333;28;20180;-86
2022/12/08 06:55:55;;;;;;;85.50;25.17;;;5.00;99.90;;;;;;5084780;28;20166;-86
2022/12/08 06:58:20;;;;;;;83.00;23.97;;;5.00;99.90;;;;;;5086151;28;20168;-86
2022/12/08 07:00:46;;;;;;;88.63;26.53;;;5.00;99.90;;;;;;5088163;28;20195;-84
2022/12/08 07:03:13;;;;;;;87.80;24.13;;;5.00;99.90;;;;;;5086958;28;20175;-86
2022/12/08 07:05:39;;;;;;;86.82;24.52;;;4.90;99.90;;;;;;5087385;28;20159;-85
2022/12/08 07:08:07;;;;;;;84.17;25.90;;;4.90;99.90;;;;;;5088580;28;20179;-86
2022/12/08 07:10:33;;;;;;;89.05;28.13;;;4.90;99.90;;;;;;5088275;28;20501;-86
2022/12/08 07:12:59;;;;;;;83.10;24.92;;;4.90;99.90;;;;;;5088178;28;20183;-86
2022/12/08 07:15:25;;;;;;;89.70;23.63;;;4.90;99.90;;;;;;5089338;28;20174;-86
2022/12/08 07:17:51;;;;;;;87.50;22.23;;;4.90;99.90;;;;;;5089413;28;20156;-86
2022/12/08 07:20:17;;;;;;;83.15;23.55;;;4.90;99.90;;;;;;5090059;28;20998;-86
2022/12/08 07:22:49;;;;;;;104.93;25.93;;;4.90;99.90;;;;;;5088320;28;20231;-85
2022/12/08 07:25:16;;;;;;;82.22;28.58;;;4.90;99.90;;;;;;5088713;28;20266;-86
2022/12/08 07:27:42;;;;;;;84.57;23.05;;;4.90;99.90;;;;;;5089550;28;20674;-86
2022/12/08 07:30:14;;;;;;;87.90;23.97;;;4.90;99.90;;;;;;5088240;28;20246;-86
2022/12/08 07:32:40;;;;;;;91.85;23.35;;;4.90;99.90;;;;;;5088723;28;20191;-86
2022/12/08 07:35:07;;;;;;;84.88;20.70;;;4.90;99.90;;;;;;5088212;28;20537;-87
2022/12/08 07:37:34;;;;;;;80.55;22.40;;;4.90;99.90;;;;;;5087516;28;20167;-87
2022/12/08 07:39:59;;;;;;;88.55;22.23;;;4.90;99.90;;;;;;5091169;28;20213;-87
2022/12/08 07:42:25;;;;;;;89.47;25.10;;;4.90;99.90;;;;;;5089137;28;20284;-86
2022/12/08 07:44:51;;;;;;;83.20;21.27;;;4.90;99.90;;;;;;5088402;28;20413;-87
2022/12/08 07:47:16;;;;;;;85.10;22.80;;;4.80;99.90;;;;;;5088425;28;20171;-86
2022/12/08 07:49:42;;;;;;;85.50;20.73;;;4.80;99.90;;;;;;5088915;28;20195;-86
2022/12/08 07:52:08;;;;;;;80.57;17.60;;;4.80;99.90;;;;;;5089865;28;20182;-86
2022/12/08 07:54:33;;;;;;;84.50;19.27;;;4.80;99.90;;;;;;5089549;28;20168;-87
2022/12/08 07:57:02;;;;;;;98.50;49.63;;;4.80;99.90;;;;;;5087134;28;20175;-87
2022/12/08 07:59:30;;;;;;;81.80;17.63;;;4.70;99.90;;;;;;5088420;28;20309;-87
2022/12/08 08:01:56;;;;;;;85.90;17.65;;;4.70;99.90;;;;;;5088777;28;20184;-87
2022/12/08 08:04:21;;;;;;;83.77;18.17;;;4.60;99.90;;;;;;5089011;28;20579;-87
2022/12/08 08:06:47;;;;;;;86.43;28.63;;;4.60;99.90;;;;;;5087283;28;20687;-86
2022/12/08 08:09:13;;;;;;;83.97;16.77;;;4.60;99.90;;;;;;5087812;28;20556;-87
2022/12/08 08:11:39;;;;;;;81.72;21.08;;;4.50;99.90;;;;;;5088938;28;20191;-87
2022/12/08 08:14:04;;;;;;;78.27;15.93;;;4.40;99.90;;;;;;5089239;28;20213;-87
2022/12/08 08:16:33;;;;;;;81.97;17.03;;;4.40;99.90;;;;;;5089356;28;20416;-88
2022/12/08 08:18:58;;;;;;;84.90;17.95;;;4.50;99.90;;;;;;5088837;28;20175;-87
2022/12/08 08:21:24;;;;;;;81.70;21.43;;;4.50;99.90;;;;;;5089593;28;20184;-86
2022/12/08 08:23:50;;;;;;;91.90;17.13;;;4.50;99.90;;;;;;5091164;28;20250;-86
2022/12/08 08:26:16;;;;;;;79.33;15.77;;;4.40;99.90;;;;;;5089771;28;20183;-86
2022/12/08 08:28:44;;;;;;;78.17;17.40;;;4.50;99.90;;;;;;5090124;28;20168;-86
2022/12/08 08:31:10;;;;;;;77.30;14.55;;;4.50;99.90;;;;;;5088020;28;20188;-86
2022/12/08 08:33:36;;;;;;;96.85;48.85;;;4.50;99.90;;;;;;5088221;28;20196;-85
2022/12/08 08:36:06;;;;;;;75.43;14.53;;;4.50;99.90;;;;;;5088196;28;20156;-86
2022/12/08 08:38:32;;;;;;;78.95;15.45;;;4.50;99.90;;;;;;5087262;28;20160;-86
2022/12/08 08:40:57;;;;;;;82.70;14.63;;;4.50;99.90;;;;;;5090190;28;20184;-86
2022/12/08 08:43:29;;;;;;;78.83;14.27;;;4.50;99.90;;;;;;5087851;28;20172;-86
2022/12/08 08:45:58;;;;;;;79.18;13.82;;;4.50;99.90;;;;;;5089049;28;20417;-86
2022/12/08 08:48:25;;;;;;;79.13;15.30;;;4.50;99.90;;;;;;5089061;28;20171;-87
2022/12/08 08:50:51;;;;;;;79.68;14.50;;;4.50;99.90;;;;;;5089678;28;20274;-86
2022/12/08 08:53:17;;;;;;;80.65;14.48;;;4.60;99.90;;;;;;5089537;28;20187;-86
2022/12/08 08:55:43;;;;;;;81.97;14.47;;;4.60;99.90;;;;;;5088590;28;20170;-86
2022/12/08 08:58:08;;;;;;;77.53;12.70;;;4.60;99.90;;;;;;5088697;28;20425;-86
2022/12/08 09:00:34;;;;;;;76.03;14.00;;;4.70;99.90;;;;;;5090513;28;20190;-86
2022/12/08 09:03:00;;;;;;;80.20;15.10;;;4.70;99.90;;;;;;5089297;28;20196;-86
2022/12/08 09:05:25;;;;;;;88.73;16.97;;;4.80;99.90;;;;;;5090705;28;20167;-86
2022/12/08 09:07:51;;;;;;;79.37;15.03;;;4.80;99.90;;;;;;5088627;28;20207;-86
2022/12/08 09:10:17;;;;;;;86.90;15.63;;;4.90;99.90;;;;;;5089279;28;20198;-86
2022/12/08 09:12:42;;;;;;;78.67;15.43;;;4.90;99.90;;;;;;5088800;28;20223;-86
2022/12/08 09:15:08;;;;;;;77.07;14.43;;;4.90;99.90;;;;;;5089861;28;20233;-86
2022/12/08 09:17:34;;;;;;;78.27;15.57;;;4.90;99.90;;;;;;5088391;28;20164;-86
2022/12/08 09:20:00;;;;;;;77.40;16.20;;;4.90;99.90;;;;;;5089748;28;20425;-86
2022/12/08 09:22:25;;;;;;;87.53;16.40;;;4.90;99.90;;;;;;5087164;28;20168;-87
2022/12/08 09:24:51;;;;;;;74.23;15.30;;;4.90;99.90;;;;;;5088664;28;20183;-86
2022/12/08 09:27:17;;;;;;;74.70;14.80;;;4.90;99.90;;;;;;5089209;28;20440;-86
2022/12/08 09:29:43;;;;;;;76.77;17.17;;;4.90;99.90;;;;;;5089430;28;20402;-86
2022/12/08 09:32:09;;;;;;;77.50;15.60;;;4.90;99.90;;;;;;5088635;28;20171;-85
2022/12/08 09:34:35;;;;;;;75.00;18.25;;;4.90;99.90;;;;;;5088167;28;20210;-87
2022/12/08 09:37:01;;;;;;;73.43;15.32;;;4.90;99.90;;;;;;5087837;28;20183;-86
2022/12/08 09:39:26;;;;;;;75.97;16.27;;;4.90;99.90;;;;;;5087065;28;20575;-85
2022/12/08 09:42:01;;;;;;;75.97;16.10;;;4.90;99.90;;;;;;5088409;28;20176;-86
2022/12/08 09:44:46;;;;;;;71.45;14.40;;;4.90;99.90;;;;;;5088118;28;20648;-86
2022/12/08 09:47:41;;;;;;;82.03;15.75;;;4.90;99.90;;;;;;5085784;28;20171;-86
2022/12/08 09:50:16;;;;;;;77.22;20.95;;;4.90;99.90;;;;;;5062613;28;20204;-85
2022/12/08 09:53:11;;;;;;;72.47;14.60;;;4.90;99.90;;;;;;5085500;28;20195;-86
2022/12/08 09:55:53;;;;;;;74.43;18.05;;;4.90;99.90;;;;;;5087326;28;20183;-86
2022/12/08 09:58:49;;;;;;;72.72;22.42;;;4.90;99.90;;;;;;5087088;28;20172;-85
2022/12/08 10:01:15;;;;;;;72.47;17.27;;;4.90;99.90;;;;;;5086498;28;20184;-85
2022/12/08 10:03:41;;;;;;;73.80;15.38;;;4.80;99.90;;;;;;5086167;28;20160;-86
2022/12/08 10:06:13;;;;;;;69.22;15.27;;;4.80;99.90;;;;;;5085604;28;20259;-86
2022/12/08 10:08:53;;;;;;;73.70;16.02;;;4.80;99.90;;;;;;5085795;28;20184;-86
2022/12/08 10:11:50;;;;;;;74.35;20.08;;;4.80;99.90;;;;;;5086059;28;20183;-86
2022/12/08 10:14:41;;;;;;;72.28;18.33;;;4.80;99.90;;;;;;5085245;28;20184;-86
2022/12/08 10:17:49;;;;;;;73.28;18.88;;;4.80;99.90;;;;;;5084116;28;20149;-85
2022/12/08 10:20:24;;;;;;;74.43;17.23;;;4.80;99.90;;;;;;5082591;28;20274;-85
2022/12/08 10:23:12;;;;;;;75.80;21.20;;;4.90;99.90;;;;;;5085708;28;20152;-86
2022/12/08 10:25:47;;;;;;;76.38;16.42;;;4.90;99.90;;;;;;5085914;28;20159;-86
2022/12/08 10:28:13;;;;;;;76.85;17.90;;;5.00;99.90;;;;;;5085123;28;20167;-86
2022/12/08 10:30:39;;;;;;;79.10;18.90;;;5.00;99.90;;;;;;5086672;28;20218;-86
2022/12/08 10:33:13;;;;;;;82.70;16.50;;;5.10;99.90;;;;;;5085070;28;20707;-85
2022/12/08 10:35:55;;;;;;;77.45;17.30;;;5.10;99.90;;;;;;5086326;28;20964;-86
2022/12/08 10:38:32;;;;;;;78.03;19.77;;;5.10;99.90;;;;;;5085829;28;20197;-86
2022/12/08 10:41:10;;;;;;;79.80;22.08;;;5.10;99.90;;;;;;5083838;28;20191;-86
2022/12/08 10:43:45;;;;;;;81.72;20.48;;;5.00;99.90;;;;;;5085876;28;20191;-86
2022/12/08 10:46:17;;;;;;;83.60;23.63;;;5.00;99.90;;;;;;5085191;28;20178;-85
2022/12/08 10:48:52;;;;;;;79.40;22.65;;;5.00;99.90;;;;;;5085303;28;20160;-86
2022/12/08 10:51:32;;;;;;;76.97;18.67;;;5.00;99.90;;;;;;5085885;28;20198;-86
2022/12/08 10:53:58;;;;;;;78.68;16.55;;;5.00;99.90;;;;;;5087015;28;20183;-85
2022/12/08 10:56:29;;;;;;;83.45;17.90;;;5.10;99.90;;;;;;5084654;28;20164;-86
2022/12/08 10:59:16;;;;;;;86.43;19.40;;;5.10;99.90;;;;;;5085921;28;20149;-86
2022/12/08 11:01:50;;;;;;;81.50;20.45;;;5.10;99.90;;;;;;5086782;28;20175;-86
2022/12/08 11:04:37;;;;;;;81.57;22.90;;;5.20;99.90;;;;;;5085402;28;20217;-86
2022/12/08 11:12:46;;;;;;;72.88;12.52;;;5.20;99.90;;;;;;5041800;28;20236;-87
2022/12/08 11:15:20;;;;;;;70.78;10.30;;;5.10;99.90;;;;;;5080603;28;20140;-87
2022/12/08 11:18:26;;;;;;;71.50;8.70;;;5.10;99.90;;;;;;5079823;28;20151;-86
2022/12/08 11:21:19;;;;;;;68.30;8.13;;;5.10;99.90;;;;;;5061749;28;20187;-86
2022/12/08 11:25:16;;;;;;;72.22;8.02;;;5.10;99.90;;;;;;5079533;28;20699;-86
2022/12/08 11:27:35;;;;;;;70.82;9.32;;;5.10;99.90;;;;;;5067497;28;20171;-86
2022/12/08 11:30:29;;;;;;;68.90;8.30;;;5.10;99.90;;;;;;5062139;28;20187;-87
2022/12/08 11:33:12;;;;;;;68.07;8.02;;;5.10;99.90;;;;;;5049552;28;20211;-86
2022/12/08 11:35:49;;;;;;;69.15;7.07;;;5.00;99.90;;;;;;5061440;28;20255;-86
2022/12/08 11:38:22;;;;;;;70.88;9.45;;;5.00;99.90;;;;;;5078909;28;20140;-86
2022/12/08 11:41:33;;;;;;;71.38;9.63;;;5.00;99.90;;;;;;5079817;28;20175;-86
2022/12/08 11:44:43;;;;;;;71.38;8.50;;;5.10;99.90;;;;;;5056471;28;20183;-87
2022/12/08 11:48:29;;;;;;;72.68;9.10;;;5.20;99.90;;;;;;5064748;28;20183;-86
2022/12/08 11:54:43;;;;;;;74.13;8.63;;;5.30;99.90;;;;;;5022059;28;20205;-86
2022/12/08 11:57:43;;;;;;;77.40;10.48;;;5.40;99.90;;;;;;5066645;28;20155;-86
2022/12/08 12:00:35;;;;;;;75.10;10.30;;;5.60;99.90;;;;;;5065902;28;20191;-85
2022/12/08 12:03:29;;;;;;;74.10;10.77;;;5.70;99.90;;;;;;5082268;28;20172;-86
2022/12/08 12:06:32;;;;;;;75.15;11.70;;;5.80;99.90;;;;;;5083398;28;20251;-87
2022/12/08 12:09:55;;;;;;;78.15;11.40;;;5.80;99.90;;;;;;5084288;28;20183;-86
2022/12/08 12:12:58;;;;;;;85.85;12.18;;;5.90;99.90;;;;;;5080827;28;20542;-86
2022/12/08 12:15:57;;;;;;;;;;;;;;;;;;;;;
2022/12/08 12:19:20;;;;;;;84.40;13.10;;;6.00;99.90;;;;;;5083560;28;20252;-86
2022/12/08 12:22:31;;;;;;;80.70;12.18;;;6.10;99.90;;;;;;5119322;22;20279;-86
2022/12/08 12:26:10;;;;;;;76.65;10.52;;;6.00;99.90;;;;;;5059550;28;20176;-86
2022/12/08 12:28:53;;;;;;;77.10;12.27;;;6.10;99.90;;;;;;5056543;28;20195;-86
2022/12/08 12:31:42;;;;;;;80.53;13.38;;;6.00;99.90;;;;;;5098012;28;20195;-86
2022/12/08 12:35:02;;;;;;;75.57;10.50;;;6.10;99.90;;;;;;5062506;28;20222;-86
2022/12/08 12:38:59;;;;;;;80.30;10.75;;;6.10;99.90;;;;;;5063285;28;20637;-86
2022/12/08 12:41:10;;;;;;;80.13;10.68;;;6.10;99.90;;;;;;4979684;28;20190;-86
2022/12/08 12:44:27;;;;;;;74.15;9.90;;;6.10;99.90;;;;;;4980508;28;20756;-86
2022/12/08 12:47:11;;;;;;;76.65;10.43;;;6.10;99.90;;;;;;4981068;28;20182;-86
2022/12/08 12:50:05;;;;;;;77.05;10.85;;;6.10;99.90;;;;;;4978684;28;20693;-86
2022/12/08 12:52:52;;;;;;;74.53;9.32;;;6.10;99.90;;;;;;4923229;29;20211;-87
2022/12/08 12:55:47;;;;;;;74.90;10.40;;;6.10;99.90;;;;;;4921554;29;20193;-86
2022/12/08 12:58:53;;;;;;;74.75;10.98;;;6.00;99.90;;;;;;4906795;29;20204;-86
2022/12/08 13:04:37;;;;;;;75.18;9.77;;;6.00;99.90;;;;;;5060576;28;20689;-87
2022/12/08 13:07:44;;;;;;;76.55;10.10;;;6.00;99.90;;;;;;5062814;28;20215;-87
2022/12/08 13:11:05;;;;;;;80.05;11.43;;;6.00;99.90;;;;;;5038323;28;20215;-87
2022/12/08 13:13:41;;;;;;;80.70;11.10;;;5.90;99.90;;;;;;5020375;28;20208;-86
2022/12/08 13:19:17;;;;;;;76.03;11.60;;;6.00;99.90;;;;;;5082013;28;20164;-86
2022/12/08 13:22:23;;;;;;;79.07;11.77;;;6.10;99.90;;;;;;5062942;28;20206;-87
2022/12/08 13:25:01;;;;;;;;;;;;;;;;;;;;;
2022/12/08 13:27:52;;;;;;;78.57;10.32;;;6.20;99.90;;;;;;5083449;28;20217;-87
2022/12/08 13:30:49;;;;;;;75.95;10.30;;;6.10;99.90;;;;;;5064272;28;20211;-87
2022/12/08 13:33:39;;;;;;;75.90;10.80;;;6.10;99.90;;;;;;5064839;28;20187;-86
2022/12/08 13:36:19;;;;;;;74.20;10.45;;;6.20;99.90;;;;;;5082006;28;20156;-87
2022/12/08 13:39:10;;;;;;;74.28;9.85;;;6.20;99.90;;;;;;5064269;28;20213;-87
2022/12/08 13:49:05;;;;;;;79.47;10.48;;;6.20;99.90;;;;;;5082677;28;20163;-86
2022/12/08 13:52:17;;;;;;;76.00;10.13;;;6.20;99.90;;;;;;5107221;22;20215;-86
2022/12/08 13:58:38;;;;;;;74.20;9.38;;;6.10;99.90;;;;;;5019597;28;20265;-85
2022/12/08 14:01:09;;;;;;;74.55;9.80;;;6.10;99.90;;;;;;5011572;28;20196;-86
2022/12/08 14:04:10;;;;;;;74.32;9.50;;;6.10;99.90;;;;;;5019518;28;20584;-86
2022/12/08 14:06:59;;;;;;;71.55;9.80;;;6.10;99.90;;;;;;5020094;28;20181;-87
2022/12/08 14:09:31;;;;;;;73.63;14.68;;;6.20;99.90;;;;;;5042568;28;20172;-86
2022/12/08 14:12:37;;;;;;;74.50;9.75;;;6.20;99.90;;;;;;5060257;28;20216;-86
2022/12/08 14:15:24;;;;;;;75.78;10.48;;;6.20;99.90;;;;;;5061271;28;20172;-86
2022/12/08 14:18:28;;;;;;;78.40;11.85;;;6.10;99.90;;;;;;5061103;28;20191;-87
2022/12/08 14:21:26;;;;;;;73.90;9.23;;;6.00;99.90;;;;;;5059319;28;20212;-86
2022/12/08 14:24:15;;;;;;;80.97;9.10;;;6.00;99.90;;;;;;5058951;28;20176;-86
2022/12/08 14:26:53;;;;;;;73.68;8.65;;;6.00;99.90;;;;;;5077593;28;20180;-86
2022/12/08 14:30:22;;;;;;;70.43;7.97;;;6.00;99.90;;;;;;5062655;28;20153;-86
2022/12/08 14:33:18;;;;;;;72.75;9.18;;;6.10;99.90;;;;;;5077437;28;20187;-87
2022/12/08 14:35:56;;;;;;;71.22;7.72;;;6.00;99.90;;;;;;5046429;28;20185;-86
2022/12/08 14:38:28;;;;;;;75.80;8.15;;;6.00;99.90;;;;;;5078559;28;20192;-86
2022/12/08 14:41:05;;;;;;;71.78;8.52;;;5.90;99.90;;;;;;5061992;28;20188;-87
2022/12/08 14:44:00;;;;;;;71.47;8.82;;;5.90;99.90;;;;;;5061591;28;20183;-86
2022/12/08 14:46:29;;;;;;;69.93;7.55;;;5.90;99.90;;;;;;5062070;28;20171;-86
2022/12/08 14:49:31;;;;;;;70.10;7.93;;;5.90;99.90;;;;;;5061489;28;20159;-86